sensor_id;sensor_type;location;lat;lon;timestamp;temperature;humidity
35463;DHT22;21578;47.892;9.970;2022-12-26T00:03:09;6.30;96.60
35463;DHT22;21578;47.892;9.970;2022-12-26T00:07:56;6.30;96.60
35463;DHT22;21578;47.892;9.970;2022-12-26T00:12:44;6.30;96.60
35463;DHT22;21578;47.892;9.970;2022-12-26T00:17:31;6.20;96.60
35463;DHT22;21578;47.892;9.970;2022-12-26T00:22:18;6.20;96.60
35463;DHT22;21578;47.892;9.970;2022-12-26T00:27:05;6.10;96.60
35463;DHT22;21578;47.892;9.970;2022-12-26T00:31:53;6.00;96.60
35463;DHT22;21578;47.892;9.970;2022-12-26T00:36:40;5.90;96.60
35463;DHT22;21578;47.892;9.970;2022-12-26T00:41:27;6.00;96.60
35463;DHT22;21578;47.892;9.970;2022-12-26T00:46:15;6.20;96.60
35463;DHT22;21578;47.892;9.970;2022-12-26T00:51:04;6.20;96.60
35463;DHT22;21578;47.892;9.970;2022-12-26T00:55:52;6.10;96.60
35463;DHT22;21578;47.892;9.970;2022-12-26T01:00:39;6.10;96.60
35463;DHT22;21578;47.892;9.970;2022-12-26T01:05:26;6.10;96.60
35463;DHT22;21578;47.892;9.970;2022-12-26T01:10:14;6.00;96.60
35463;DHT22;21578;47.892;9.970;2022-12-26T01:15:01;6.10;96.60
35463;DHT22;21578;47.892;9.970;2022-12-26T01:19:48;6.10;96.60
35463;DHT22;21578;47.892;9.970;2022-12-26T01:24:35;6.00;96.60
35463;DHT22;21578;47.892;9.970;2022-12-26T01:29:23;5.90;96.60
35463;DHT22;21578;47.892;9.970;2022-12-26T01:34:10;5.90;96.60
35463;DHT22;21578;47.892;9.970;2022-12-26T01:38:57;5.90;96.60
35463;DHT22;21578;47.892;9.970;2022-12-26T01:43:50;5.80;96.60
35463;DHT22;21578;47.892;9.970;2022-12-26T01:48:38;5.80;96.60
35463;DHT22;21578;47.892;9.970;2022-12-26T01:53:29;5.90;96.60
35463;DHT22;21578;47.892;9.970;2022-12-26T01:58:22;5.70;96.60
35463;DHT22;21578;47.892;9.970;2022-12-26T02:03:12;5.50;96.60
35463;DHT22;21578;47.892;9.970;2022-12-26T02:08:20;5.40;96.60
35463;DHT22;21578;47.892;9.970;2022-12-26T02:13:09;5.40;96.60
35463;DHT22;21578;47.892;9.970;2022-12-26T02:17:57;5.40;96.60
35463;DHT22;21578;47.892;9.970;2022-12-26T02:28:46;5.40;96.60
35463;DHT22;21578;47.892;9.970;2022-12-26T02:33:47;5.40;96.60
35463;DHT22;21578;47.892;9.970;2022-12-26T02:38:40;5.40;96.60
35463;DHT22;21578;47.892;9.970;2022-12-26T02:43:36;5.40;96.60
35463;DHT22;21578;47.892;9.970;2022-12-26T02:48:34;5.40;96.60
35463;DHT22;21578;47.892;9.970;2022-12-26T02:53:33;5.40;96.60
35463;DHT22;21578;47.892;9.970;2022-12-26T02:58:47;5.50;96.60
35463;DHT22;21578;47.892;9.970;2022-12-26T03:03:54;5.50;96.60
35463;DHT22;21578;47.892;9.970;2022-12-26T03:09:03;5.60;96.60
35463;DHT22;21578;47.892;9.970;2022-12-26T03:14:14;5.60;96.60
35463;DHT22;21578;47.892;9.970;2022-12-26T03:19:06;5.60;96.60
35463;DHT22;21578;47.892;9.970;2022-12-26T03:23:55;5.60;96.60
35463;DHT22;21578;47.892;9.970;2022-12-26T03:28:44;5.60;96.60
35463;DHT22;21578;47.892;9.970;2022-12-26T03:33:34;5.60;96.60
35463;DHT22;21578;47.892;9.970;2022-12-26T03:38:45;5.70;96.60
35463;DHT22;21578;47.892;9.970;2022-12-26T03:43:53;5.70;96.60
35463;DHT22;21578;47.892;9.970;2022-12-26T03:49:06;5.70;96.60
35463;DHT22;21578;47.892;9.970;2022-12-26T03:54:15;5.70;96.60
35463;DHT22;21578;47.892;9.970;2022-12-26T03:59:40;5.70;96.60
35463;DHT22;21578;47.892;9.970;2022-12-26T04:04:49;5.60;96.60
35463;DHT22;21578;47.892;9.970;2022-12-26T04:09:59;5.60;96.60
35463;DHT22;21578;47.892;9.970;2022-12-26T04:15:12;5.60;96.60
35463;DHT22;21578;47.892;9.970;2022-12-26T04:20:23;5.60;96.60
35463;DHT22;21578;47.892;9.970;2022-12-26T04:25:14;5.60;96.60
35463;DHT22;21578;47.892;9.970;2022-12-26T04:30:21;5.70;96.60
35463;DHT22;21578;47.892;9.970;2022-12-26T04:35:29;5.70;96.60
35463;DHT22;21578;47.892;9.970;2022-12-26T04:40:39;5.80;96.60
35463;DHT22;21578;47.892;9.970;2022-12-26T04:45:45;5.90;96.60
35463;DHT22;21578;47.892;9.970;2022-12-26T04:50:32;5.90;96.60
35463;DHT22;21578;47.892;9.970;2022-12-26T04:55:19;5.90;96.60
35463;DHT22;21578;47.892;9.970;2022-12-26T05:00:07;5.80;96.60
35463;DHT22;21578;47.892;9.970;2022-12-26T05:04:55;5.80;96.60
35463;DHT22;21578;47.892;9.970;2022-12-26T05:10:00;5.70;96.60
35463;DHT22;21578;47.892;9.970;2022-12-26T05:14:47;5.80;96.60
35463;DHT22;21578;47.892;9.970;2022-12-26T05:19:34;5.80;96.60
35463;DHT22;21578;47.892;9.970;2022-12-26T05:24:40;5.80;96.60
35463;DHT22;21578;47.892;9.970;2022-12-26T05:29:45;5.80;96.60
35463;DHT22;21578;47.892;9.970;2022-12-26T05:34:32;5.70;96.60
35463;DHT22;21578;47.892;9.970;2022-12-26T05:39:19;5.70;96.60
35463;DHT22;21578;47.892;9.970;2022-12-26T05:44:08;5.80;96.60
35463;DHT22;21578;47.892;9.970;2022-12-26T05:48:55;5.80;96.60
35463;DHT22;21578;47.892;9.970;2022-12-26T05:53:41;5.90;96.60
35463;DHT22;21578;47.892;9.970;2022-12-26T05:58:28;5.90;96.60
35463;DHT22;21578;47.892;9.970;2022-12-26T06:03:17;5.90;96.60
35463;DHT22;21578;47.892;9.970;2022-12-26T06:08:04;5.80;96.60
35463;DHT22;21578;47.892;9.970;2022-12-26T06:12:51;5.80;96.60
35463;DHT22;21578;47.892;9.970;2022-12-26T06:17:38;5.80;96.60
35463;DHT22;21578;47.892;9.970;2022-12-26T06:22:29;5.80;96.60
35463;DHT22;21578;47.892;9.970;2022-12-26T06:27:15;5.90;96.60
35463;DHT22;21578;47.892;9.970;2022-12-26T06:32:04;5.90;96.60
35463;DHT22;21578;47.892;9.970;2022-12-26T06:36:51;5.90;96.60
35463;DHT22;21578;47.892;9.970;2022-12-26T06:41:39;6.00;96.60
35463;DHT22;21578;47.892;9.970;2022-12-26T06:46:26;6.00;96.60
35463;DHT22;21578;47.892;9.970;2022-12-26T06:51:14;6.00;96.60
35463;DHT22;21578;47.892;9.970;2022-12-26T06:56:06;6.00;96.60
35463;DHT22;21578;47.892;9.970;2022-12-26T07:00:54;5.80;96.60
35463;DHT22;21578;47.892;9.970;2022-12-26T07:05:41;5.80;96.60
35463;DHT22;21578;47.892;9.970;2022-12-26T07:10:28;5.80;96.60
35463;DHT22;21578;47.892;9.970;2022-12-26T07:15:15;5.60;96.60
35463;DHT22;21578;47.892;9.970;2022-12-26T07:20:04;5.50;96.60
35463;DHT22;21578;47.892;9.970;2022-12-26T07:24:51;5.60;96.60
35463;DHT22;21578;47.892;9.970;2022-12-26T07:29:38;5.70;96.60
35463;DHT22;21578;47.892;9.970;2022-12-26T07:34:25;5.70;96.60
35463;DHT22;21578;47.892;9.970;2022-12-26T07:39:15;5.80;96.60
35463;DHT22;21578;47.892;9.970;2022-12-26T07:44:02;5.90;96.60
35463;DHT22;21578;47.892;9.970;2022-12-26T07:48:50;6.00;96.60
35463;DHT22;21578;47.892;9.970;2022-12-26T07:53:37;6.10;96.60
35463;DHT22;21578;47.892;9.970;2022-12-26T07:58:25;6.10;96.60
35463;DHT22;21578;47.892;9.970;2022-12-26T08:03:12;6.20;96.60
35463;DHT22;21578;47.892;9.970;2022-12-26T08:07:59;6.30;96.60
35463;DHT22;21578;47.892;9.970;2022-12-26T08:12:46;6.40;96.60
35463;DHT22;21578;47.892;9.970;2022-12-26T08:17:34;6.50;96.60
35463;DHT22;21578;47.892;9.970;2022-12-26T08:22:21;6.60;96.60
35463;DHT22;21578;47.892;9.970;2022-12-26T08:27:10;6.70;96.60
35463;DHT22;21578;47.892;9.970;2022-12-26T08:31:56;6.80;96.60
35463;DHT22;21578;47.892;9.970;2022-12-26T08:36:45;6.90;96.60
35463;DHT22;21578;47.892;9.970;2022-12-26T08:41:35;7.00;96.60
35463;DHT22;21578;47.892;9.970;2022-12-26T08:46:22;7.10;96.60
35463;DHT22;21578;47.892;9.970;2022-12-26T08:51:12;7.20;96.60
35463;DHT22;21578;47.892;9.970;2022-12-26T08:56:02;7.30;96.60
35463;DHT22;21578;47.892;9.970;2022-12-26T09:00:50;7.40;96.60
35463;DHT22;21578;47.892;9.970;2022-12-26T09:05:58;7.40;96.60
35463;DHT22;21578;47.892;9.970;2022-12-26T09:10:45;7.50;96.60
35463;DHT22;21578;47.892;9.970;2022-12-26T09:15:35;7.60;96.60
35463;DHT22;21578;47.892;9.970;2022-12-26T09:20:31;7.60;96.60
35463;DHT22;21578;47.892;9.970;2022-12-26T11:54:49;8.80;96.60
35463;DHT22;21578;47.892;9.970;2022-12-26T11:59:36;8.70;96.60
35463;DHT22;21578;47.892;9.970;2022-12-26T12:04:23;8.70;96.60
35463;DHT22;21578;47.892;9.970;2022-12-26T12:09:16;8.60;96.60
